Time;durP1;ratioP1;P1;durP2;ratioP2;P2;SDS_P1;SDS_P2;PMS_P1;PMS_P2;Temp;Humidity;BMP_temperature;BMP_pressure;BME280_temperature;BME280_humidity;BME280_pressure;Samples;Min_cycle;Max_cycle;Signal;HPM_P1;HPM_P2
2023/06/10 00:00:05;;;;;;;12.70;10.10;;;;;;;26.65;38.70;99903.02;107994;1254;69919;-65
2023/06/10 00:02:39;;;;;;;16.50;10.60;;;;;;;27.05;38.27;99899.79;107971;1257;72711;-68
2023/06/10 00:05:13;;;;;;;15.40;11.70;;;;;;;26.76;38.80;99900.91;107972;1255;60427;-67
2023/06/10 00:07:41;;;;;;;13.00;10.50;;;;;;;25.82;40.16;99899.22;108026;1254;59999;-66
2023/06/10 00:10:16;;;;;;;15.30;11.00;;;;;;;25.40;40.95;99898.69;107985;1254;71782;-66
2023/06/10 00:12:45;;;;;;;14.80;11.10;;;;;;;25.38;41.13;99901.06;108080;1254;70005;-66
2023/06/10 00:15:12;;;;;;;16.30;10.70;;;;;;;25.32;41.50;99898.07;107907;1254;72647;-68
2023/06/10 00:17:42;;;;;;;19.50;11.80;;;;;;;25.33;41.59;99894.73;108049;1259;60373;-68
2023/06/10 00:20:11;;;;;;;14.60;11.10;;;;;;;25.13;41.84;99898.50;108026;1254;59983;-67
2023/06/10 00:22:41;;;;;;;14.00;9.50;;;;;;;25.08;41.93;99898.66;108030;1254;73009;-67
2023/06/10 00:25:10;;;;;;;14.80;11.10;;;;;;;25.24;41.48;99895.81;108064;1254;70596;-67
2023/06/10 00:27:38;;;;;;;13.50;10.30;;;;;;;25.65;40.69;99891.58;107895;1257;72735;-67
2023/06/10 00:30:08;;;;;;;17.80;10.80;;;;;;;25.85;40.19;99893.68;107776;1257;61754;-67
2023/06/10 00:32:37;;;;;;;13.70;10.30;;;;;;;25.80;40.07;99890.08;107872;1256;59626;-67
2023/06/10 00:35:06;;;;;;;12.80;10.00;;;;;;;25.86;40.00;99890.15;107885;1258;72975;-67
2023/06/10 00:37:37;;;;;;;12.90;10.90;;;;;;;26.09;39.65;99886.71;107886;1257;70654;-67
2023/06/10 00:40:05;;;;;;;13.00;9.20;;;;;;;26.05;39.87;99890.11;107972;1257;72628;-68
2023/06/10 00:42:32;;;;;;;12.40;10.60;;;;;;;26.33;39.38;99894.05;107869;1256;60369;-68
2023/06/10 00:45:00;;;;;;;14.80;10.90;;;;;;;26.30;39.42;99898.52;107916;1256;60411;-68
2023/06/10 00:47:27;;;;;;;16.70;11.00;;;;;;;26.00;39.98;99900.04;107876;1256;73898;-67
2023/06/10 00:49:57;;;;;;;18.80;11.40;;;;;;;25.67;40.41;99899.50;107873;1257;68830;-68
2023/06/10 00:52:26;;;;;;;19.30;12.20;;;;;;;25.63;40.36;99897.23;107882;1257;72953;-68
2023/06/10 00:54:54;;;;;;;19.20;11.80;;;;;;;25.71;40.63;99897.23;107887;1257;61610;-67
2023/06/10 00:57:25;;;;;;;20.60;12.60;;;;;;;25.47;40.96;99896.86;108007;1257;60291;-68
2023/06/10 00:59:52;;;;;;;15.60;11.10;;;;;;;25.39;41.29;99899.54;107807;1257;74237;-68
2023/06/10 01:02:19;;;;;;;14.20;11.60;;;;;;;25.21;41.56;99903.00;107800;1262;69015;-67
2023/06/10 01:04:48;;;;;;;23.00;12.10;;;;;;;25.24;41.72;99901.34;107872;1257;72701;-67
2023/06/10 01:07:19;;;;;;;18.90;11.70;;;;;;;25.46;41.38;99898.77;107809;1260;61051;-67
2023/06/10 01:10:03;;;;;;;18.60;12.60;;;;;;;25.63;41.04;99898.30;107830;1257;60712;-67
2023/06/10 01:12:48;;;;;;;18.40;12.10;;;;;;;25.52;41.22;99899.39;107741;1257;73949;-67
2023/06/10 01:15:21;;;;;;;15.20;10.30;;;;;;;25.17;41.78;99897.50;107883;1256;70056;-67
2023/06/10 01:17:54;;;;;;;17.30;11.10;;;;;;;25.02;42.00;99902.21;107909;1257;70711;-67
2023/06/10 01:20:23;;;;;;;15.70;11.40;;;;;;;25.12;41.92;99902.03;107925;1256;61680;-67
2023/06/10 01:22:54;;;;;;;14.70;10.30;;;;;;;25.26;41.55;99904.06;107783;1256;60325;-67
2023/06/10 01:25:27;;;;;;;11.90;7.80;;;;;;;25.25;41.47;99906.52;107878;1256;73778;-67
2023/06/10 01:28:15;;;;;;;14.50;10.30;;;;;;;25.13;41.82;99907.30;108190;1257;70843;-67
2023/06/10 01:31:00;;;;;;;13.70;9.80;;;;;;;25.53;41.18;99906.48;108208;1254;72689;-67
2023/06/10 01:33:31;;;;;;;14.00;10.50;;;;;;;25.60;40.82;99906.88;108221;1254;61670;-67
2023/06/10 01:35:58;;;;;;;11.40;9.00;;;;;;;25.53;40.94;99907.27;108074;1251;60014;-67
2023/06/10 01:38:29;;;;;;;11.00;9.10;;;;;;;25.72;40.44;99907.05;108337;1251;72986;-67
2023/06/10 01:40:57;;;;;;;12.80;9.90;;;;;;;25.86;40.02;99904.17;108254;1251;70713;-67
2023/06/10 01:43:27;;;;;;;14.10;9.20;;;;;;;25.96;40.02;99904.23;108219;1251;72712;-67
2023/06/10 01:45:54;;;;;;;12.90;9.90;;;;;;;26.42;39.09;99905.59;108348;1256;61687;-67
2023/06/10 01:48:24;;;;;;;15.90;10.00;;;;;;;26.42;39.15;99902.05;108297;1251;60324;-68
2023/06/10 01:50:51;;;;;;;13.20;9.30;;;;;;;26.48;38.92;99899.89;108232;1251;73908;-66
2023/06/10 01:53:21;;;;;;;12.70;9.50;;;;;;;26.67;38.50;99900.05;108245;1251;69341;-67
2023/06/10 01:55:49;;;;;;;11.00;9.00;;;;;;;26.78;38.37;99895.98;108368;1251;72180;-67
2023/06/10 01:58:16;;;;;;;17.60;10.50;;;;;;;26.81;38.27;99893.87;108331;1253;60472;-67
2023/06/10 02:00:45;;;;;;;15.30;9.20;;;;;;;26.91;37.92;99892.79;108349;1251;60364;-66
2023/06/10 02:03:16;;;;;;;15.40;9.40;;;;;;;26.80;38.33;99894.58;108265;1251;72640;-67
2023/06/10 02:05:44;;;;;;;16.10;9.40;;;;;;;26.72;38.34;99895.78;108254;1251;70538;-66
2023/06/10 02:08:12;;;;;;;13.70;10.00;;;;;;;26.60;38.68;99898.46;108101;1254;71384;-66
2023/06/10 02:10:40;;;;;;;15.80;9.60;;;;;;;26.69;38.35;99902.21;108230;1253;60460;-67
2023/06/10 02:13:08;;;;;;;16.50;9.40;;;;;;;26.71;38.38;99903.79;108224;1251;60506;-67
2023/06/10 02:15:35;;;;;;;22.80;10.50;;;;;;;26.67;38.64;99900.83;108277;1251;73930;-68
2023/06/10 02:18:03;;;;;;;12.60;10.30;;;;;;;26.82;38.36;99901.86;108226;1251;70133;-69
2023/06/10 02:20:30;;;;;;;15.80;10.10;;;;;;;26.84;38.35;99905.27;108280;1251;71450;-67
2023/06/10 02:22:59;;;;;;;18.30;10.10;;;;;;;26.89;38.40;99900.73;108229;1251;60501;-68
2023/06/10 02:25:26;;;;;;;13.80;9.80;;;;;;;26.84;38.25;99902.92;108193;1257;60594;-67
2023/06/10 02:27:53;;;;;;;15.40;9.10;;;;;;;26.76;38.61;99904.73;108148;1252;73887;-67
2023/06/10 02:30:21;;;;;;;14.30;9.30;;;;;;;26.89;38.24;99905.02;108055;1252;70157;-66
2023/06/10 02:32:50;;;;;;;17.00;9.60;;;;;;;26.84;38.34;99903.83;108227;1254;71414;-67
2023/06/10 02:35:18;;;;;;;13.50;9.50;;;;;;;26.72;38.61;99907.79;108056;1254;61650;-67
2023/06/10 02:37:48;;;;;;;11.10;9.20;;;;;;;26.90;38.55;99914.13;108008;1253;60429;-67
2023/06/10 02:40:15;;;;;;;11.80;9.20;;;;;;;26.99;38.36;99917.17;108152;1253;73974;-67
2023/06/10 02:42:43;;;;;;;15.30;9.40;;;;;;;26.94;38.24;99921.06;108147;1253;70813;-67
2023/06/10 02:45:11;;;;;;;15.10;8.80;;;;;;;27.07;38.17;99920.36;108132;1253;72716;-68
2023/06/10 02:47:41;;;;;;;13.60;8.90;;;;;;;27.21;37.81;99921.54;108123;1253;60514;-67
2023/06/10 02:50:12;;;;;;;11.50;9.30;;;;;;;27.15;38.20;99922.82;108218;1252;60178;-67
2023/06/10 02:52:49;;;;;;;15.60;8.80;;;;;;;27.38;37.68;99927.14;108238;1253;73859;-67
2023/06/10 02:55:26;;;;;;;14.10;9.40;;;;;;;27.48;37.71;99931.01;108071;1258;70090;-67
2023/06/10 02:57:59;;;;;;;14.10;8.90;;;;;;;27.55;37.31;99932.11;108044;1253;71256;-67
2023/06/10 03:00:28;;;;;;;14.20;9.50;;;;;;;27.57;37.38;99937.11;108169;1253;61689;-67
2023/06/10 03:03:02;;;;;;;12.90;9.40;;;;;;;27.67;37.18;99936.50;108096;1253;60353;-68
2023/06/10 03:05:32;;;;;;;11.70;9.30;;;;;;;27.52;37.25;99936.58;108160;1254;73916;-66
2023/06/10 03:08:01;;;;;;;15.30;9.30;;;;;;;27.46;37.37;99937.00;108293;1254;69883;-67
2023/06/10 03:10:31;;;;;;;13.70;9.10;;;;;;;27.62;37.19;99938.99;108123;1254;73734;-68
2023/06/10 03:13:02;;;;;;;18.10;10.10;;;;;;;27.81;37.03;99941.48;108027;1254;60406;-66
2023/06/10 03:15:32;;;;;;;13.70;8.70;;;;;;;28.16;36.38;99942.15;108148;1254;60363;-66
2023/06/10 03:18:00;;;;;;;14.40;8.70;;;;;;;28.35;36.08;99941.98;108191;1253;73116;-67
2023/06/10 03:20:29;;;;;;;15.90;8.50;;;;;;;28.18;36.46;99945.54;108152;1254;69706;-67
2023/06/10 03:23:00;;;;;;;11.30;8.90;;;;;;;28.02;36.79;99946.27;108030;1254;71521;-65
2023/06/10 03:25:28;;;;;;;14.90;8.80;;;;;;;28.16;36.65;99942.48;108224;1253;62086;-66
2023/06/10 03:27:56;;;;;;;13.60;8.80;;;;;;;28.36;36.42;99941.29;108253;1251;60473;-66
2023/06/10 03:30:29;;;;;;;11.60;8.40;;;;;;;28.46;36.00;99939.15;108166;1251;73832;-66
2023/06/10 03:33:00;;;;;;;15.60;8.10;;;;;;;28.87;35.46;99940.17;108227;1251;68747;-66
2023/06/10 03:35:29;;;;;;;13.60;8.10;;;;;;;28.98;35.46;99940.27;108281;1251;71880;-67
2023/06/10 03:37:56;;;;;;;13.70;7.40;;;;;;;28.86;35.78;99942.08;108146;1251;61683;-65
2023/06/10 03:40:30;;;;;;;10.70;8.30;;;;;;;29.20;35.25;99942.79;108280;1256;60030;-67
2023/06/10 03:42:58;;;;;;;11.50;7.90;;;;;;;29.30;35.05;99944.52;108094;1251;73809;-66
2023/06/10 03:45:28;;;;;;;11.80;7.80;;;;;;;29.65;34.44;99942.29;108358;1251;68378;-66
2023/06/10 03:48:00;;;;;;;12.00;7.90;;;;;;;29.70;34.50;99946.59;108254;1251;72622;-67
2023/06/10 03:50:38;;;;;;;11.20;7.60;;;;;;;29.41;34.88;99948.25;108205;1254;61752;-66
2023/06/10 03:53:05;;;;;;;11.40;7.90;;;;;;;29.28;35.26;99945.65;108231;1251;60341;-66
2023/06/10 03:55:36;;;;;;;10.80;8.30;;;;;;;29.35;35.12;99943.50;108377;1251;72612;-66
2023/06/10 03:58:04;;;;;;;14.80;7.50;;;;;;;29.44;35.20;99940.73;108341;1251;69527;-67
2023/06/10 04:00:40;;;;;;;14.00;7.30;;;;;;;29.27;35.50;99943.38;108198;1251;72010;-68
2023/06/10 04:03:17;;;;;;;12.50;8.00;;;;;;;29.43;35.32;99937.55;108292;1251;61799;-67
2023/06/10 04:05:52;;;;;;;13.10;7.70;;;;;;;29.46;35.45;99937.34;108386;1251;60039;-67
2023/06/10 04:08:20;;;;;;;11.90;7.50;;;;;;;29.49;35.45;99938.36;108363;1251;74037;-68
2023/06/10 04:10:47;;;;;;;13.10;7.50;;;;;;;29.67;35.42;99935.85;108169;1251;70536;-69
2023/06/10 04:13:15;;;;;;;12.70;7.30;;;;;;;29.87;35.10;99937.15;108115;1251;71768;-67
2023/06/10 04:15:54;;;;;;;11.70;7.40;;;;;;;30.26;34.69;99937.29;108305;1256;61626;-69
2023/06/10 04:18:22;;;;;;;12.00;7.40;;;;;;;30.24;34.54;99933.16;108295;1251;60302;-68
2023/06/10 04:20:53;;;;;;;8.80;7.20;;;;;;;30.05;34.88;99935.30;108293;1256;73765;-67
2023/06/10 04:23:20;;;;;;;12.40;6.90;;;;;;;30.24;34.66;99935.84;108104;1251;69926;-69
2023/06/10 04:25:50;;;;;;;14.00;7.90;;;;;;;30.42;34.53;99931.35;108226;1253;72808;-67
2023/06/10 04:28:18;;;;;;;13.10;7.60;;;;;;;30.76;33.93;99928.64;108268;1251;61657;-68
2023/06/10 04:30:49;;;;;;;10.30;6.70;;;;;;;30.94;33.74;99928.09;108239;1251;60463;-68
2023/06/10 04:33:16;;;;;;;10.20;6.70;;;;;;;30.89;33.67;99927.58;108317;1251;73843;-69
2023/06/10 04:35:43;;;;;;;9.40;6.70;;;;;;;31.05;33.77;99926.70;108104;1251;69359;-67
2023/06/10 04:38:13;;;;;;;9.60;6.80;;;;;;;31.35;33.42;99931.61;108110;1251;73207;-67
2023/06/10 04:40:42;;;;;;;11.40;7.00;;;;;;;31.57;33.02;99933.11;108292;1251;61641;-67
2023/06/10 04:43:13;;;;;;;13.00;7.20;;;;;;;31.88;32.63;99931.41;108268;1253;60539;-67
2023/06/10 04:45:44;;;;;;;14.30;7.70;;;;;;;32.13;32.27;99930.02;108293;1251;72945;-69
2023/06/10 04:48:12;;;;;;;9.30;7.00;;;;;;;32.29;31.96;99927.23;108281;1251;69965;-68
2023/06/10 04:50:42;;;;;;;20.90;6.40;;;;;;;32.56;31.67;99926.15;108304;1253;70359;-68
2023/06/10 04:53:10;;;;;;;10.40;5.90;;;;;;;32.61;31.74;99925.48;108367;1251;60322;-68
2023/06/10 04:55:38;;;;;;;9.70;6.50;;;;;;;32.40;31.86;99927.13;108103;1251;60336;-70
2023/06/10 04:58:09;;;;;;;11.50;6.10;;;;;;;32.28;31.96;99930.59;108255;1251;72051;-68
2023/06/10 05:00:37;;;;;;;9.90;6.70;;;;;;;32.27;32.05;99929.50;108259;1251;68517;-68
2023/06/10 05:03:04;;;;;;;7.70;6.60;;;;;;;31.92;32.47;99930.70;108242;1257;73068;-66
2023/06/10 05:05:31;;;;;;;12.20;6.80;;;;;;;32.03;32.26;99925.93;108260;1251;60447;-68
2023/06/10 05:07:59;;;;;;;10.30;6.40;;;;;;;32.33;32.01;99922.45;108327;1251;60271;-67
2023/06/10 05:10:26;;;;;;;12.20;7.40;;;;;;;32.30;32.06;99924.20;108299;1251;72641;-68
2023/06/10 05:12:53;;;;;;;9.50;5.90;;;;;;;32.72;31.58;99923.14;108296;1251;70280;-68
2023/06/10 05:15:21;;;;;;;17.70;6.50;;;;;;;33.11;31.17;99923.58;108278;1253;72659;-69
2023/06/10 05:17:48;;;;;;;15.70;7.00;;;;;;;33.23;31.10;99920.91;108314;1253;60405;-69
2023/06/10 05:20:18;;;;;;;11.70;6.30;;;;;;;33.50;30.76;99922.27;108374;1251;60281;-68
2023/06/10 05:22:46;;;;;;;13.10;5.70;;;;;;;33.64;30.30;99924.84;108325;1251;63911;-69
2023/06/10 05:25:13;;;;;;;12.70;5.90;;;;;;;33.68;30.17;99926.70;108275;1251;69942;-68
2023/06/10 05:27:42;;;;;;;11.40;5.80;;;;;;;33.80;30.09;99932.47;108287;1251;63845;-68
2023/06/10 05:30:10;;;;;;;10.30;6.10;;;;;;;33.83;30.20;99923.09;108259;1252;60368;-68
2023/06/10 05:32:37;;;;;;;12.50;6.30;;;;;;;34.15;29.89;99923.64;108290;1251;60361;-69
2023/06/10 05:35:06;;;;;;;11.40;6.10;;;;;;;34.24;29.88;99924.66;108264;1251;65055;-69
2023/06/10 05:37:34;;;;;;;12.20;6.30;;;;;;;34.29;29.58;99926.13;108290;1251;61500;-68
2023/06/10 05:40:04;;;;;;;9.30;6.10;;;;;;;34.43;29.69;99926.89;108230;1253;63773;-69
2023/06/10 05:42:31;;;;;;;12.10;6.00;;;;;;;34.58;29.25;99921.86;108299;1251;60315;-68
2023/06/10 05:45:00;;;;;;;14.40;5.40;;;;;;;34.63;28.87;99921.94;108268;1251;61276;-67
2023/06/10 05:47:28;;;;;;;8.80;5.60;;;;;;;34.67;28.54;99927.14;108258;1251;63800;-68
2023/06/10 05:49:55;;;;;;;9.80;5.40;;;;;;;34.95;28.13;99927.66;108371;1251;61579;-68
2023/06/10 05:52:23;;;;;;;11.40;5.50;;;;;;;35.11;27.67;99925.77;108379;1251;63809;-70
2023/06/10 05:54:50;;;;;;;13.50;5.20;;;;;;;35.15;27.70;99927.33;108362;1251;60286;-69
2023/06/10 05:57:17;;;;;;;10.90;5.80;;;;;;;35.28;27.45;99927.52;108474;1251;59034;-68
2023/06/10 05:59:44;;;;;;;9.00;5.20;;;;;;;35.33;27.49;99933.33;108313;1251;63600;-68
2023/06/10 06:02:12;;;;;;;12.50;5.40;;;;;;;35.19;27.48;99933.11;108208;1251;61372;-69
2023/06/10 06:04:39;;;;;;;10.10;5.60;;;;;;;35.26;27.54;99930.90;108271;1251;63151;-67
2023/06/10 06:07:06;;;;;;;10.70;5.10;;;;;;;35.64;27.24;99936.91;108219;1251;60413;-68
2023/06/10 06:09:34;;;;;;;12.60;5.90;;;;;;;35.58;26.86;99934.42;108316;1251;60424;-66
2023/06/10 06:12:01;;;;;;;9.00;5.30;;;;;;;35.60;27.05;99936.81;108310;1251;63668;-66
2023/06/10 06:14:30;;;;;;;8.40;5.20;;;;;;;35.98;26.28;99934.06;108304;1253;61522;-67
2023/06/10 06:16:58;;;;;;;14.70;5.40;;;;;;;35.91;26.37;99938.45;108292;1251;72688;-67
2023/06/10 06:19:25;;;;;;;10.30;5.00;;;;;;;35.85;26.40;99937.40;108337;1251;60337;-67
2023/06/10 06:21:52;;;;;;;10.50;5.20;;;;;;;36.10;26.03;99934.75;108290;1251;60328;-67
2023/06/10 06:24:23;;;;;;;10.40;5.00;;;;;;;36.30;26.06;99935.19;108262;1251;64993;-68
2023/06/10 06:26:50;;;;;;;16.60;6.10;;;;;;;36.69;26.11;99937.05;108218;1254;61484;-69
2023/06/10 06:29:18;;;;;;;9.10;5.20;;;;;;;37.10;25.84;99941.11;108141;1253;63732;-70
2023/06/10 06:31:47;;;;;;;13.10;5.00;;;;;;;37.54;25.17;99941.44;108183;1254;60526;-68
2023/06/10 06:34:15;;;;;;;9.60;4.70;;;;;;;37.86;24.75;99940.86;108175;1253;60424;-68
2023/06/10 06:36:45;;;;;;;8.00;4.80;;;;;;;38.05;24.29;99944.54;108145;1252;64927;-67
2023/06/10 06:39:12;;;;;;;13.70;5.50;;;;;;;38.61;23.93;99941.86;108160;1253;61438;-69
2023/06/10 06:41:41;;;;;;;11.30;5.10;;;;;;;39.00;23.81;99937.36;107942;1255;63802;-68
2023/06/10 06:44:11;;;;;;;14.60;4.30;;;;;;;39.06;23.98;99934.06;108154;1253;60450;-68
2023/06/10 06:46:46;;;;;;;10.60;4.40;;;;;;;39.07;23.73;99930.43;108215;1253;60348;-69
2023/06/10 06:49:16;;;;;;;13.50;5.00;;;;;;;39.04;23.66;99930.34;108229;1252;63609;-69
2023/06/10 06:51:43;;;;;;;6.40;4.40;;;;;;;39.08;23.67;99933.88;108241;1253;60556;-67
2023/06/10 06:54:11;;;;;;;8.60;5.20;;;;;;;39.15;23.65;99933.16;108169;1254;62630;-68
2023/06/10 06:56:39;;;;;;;7.90;4.70;;;;;;;38.93;23.82;99929.23;108177;1254;60291;-69
2023/06/10 06:59:06;;;;;;;7.40;4.20;;;;;;;38.83;24.11;99930.61;108168;1254;60302;-68
2023/06/10 07:01:34;;;;;;;9.00;4.50;;;;;;;39.05;23.56;99928.31;108139;1253;63737;-70
2023/06/10 07:04:02;;;;;;;14.10;5.10;;;;;;;39.14;23.90;99926.80;108177;1253;61355;-69
2023/06/10 07:06:29;;;;;;;12.30;4.70;;;;;;;39.44;23.68;99928.25;108100;1252;63786;-69
2023/06/10 07:09:01;;;;;;;9.70;5.20;;;;;;;39.43;23.35;99930.50;108113;1254;60409;-68
2023/06/10 07:11:31;;;;;;;6.70;4.50;;;;;;;39.45;22.97;99933.27;108138;1253;60316;-69
2023/06/10 07:13:58;;;;;;;6.60;4.70;;;;;;;39.60;23.02;99931.62;108172;1252;65072;-68
2023/06/10 07:16:26;;;;;;;6.10;4.60;;;;;;;39.65;23.11;99931.98;108163;1252;61442;-70
2023/06/10 07:18:53;;;;;;;9.90;5.10;;;;;;;40.02;23.08;99933.84;108174;1252;62441;-69
2023/06/10 07:21:22;;;;;;;12.30;5.10;;;;;;;39.95;22.83;99934.84;108126;1256;60415;-69
2023/06/10 07:23:52;;;;;;;9.40;4.80;;;;;;;39.57;23.02;99934.13;108177;1253;60377;-69
2023/06/10 07:26:25;;;;;;;8.10;4.80;;;;;;;39.35;23.14;99929.96;108213;1251;63688;-69
2023/06/10 07:28:52;;;;;;;11.70;5.20;;;;;;;39.45;23.03;99926.77;108308;1251;61440;-69
2023/06/10 07:31:20;;;;;;;5.80;4.40;;;;;;;39.34;23.46;99928.86;108306;1251;62470;-67
2023/06/10 07:33:47;;;;;;;12.50;4.90;;;;;;;39.47;22.98;99930.27;108318;1254;60960;-69
2023/06/10 07:36:17;;;;;;;14.50;4.70;;;;;;;39.41;23.14;99928.14;108407;1251;60246;-68
2023/06/10 07:38:48;;;;;;;6.50;4.50;;;;;;;39.32;23.33;99924.97;108308;1256;64907;-70
2023/06/10 07:41:19;;;;;;;9.40;4.60;;;;;;;39.65;23.00;99925.97;108348;1251;60493;-69
2023/06/10 07:43:46;;;;;;;6.30;4.50;;;;;;;40.03;23.07;99928.23;108334;1251;63700;-68
2023/06/10 07:46:16;;;;;;;9.90;4.60;;;;;;;40.22;22.94;99930.08;108357;1251;60451;-67
2023/06/10 07:48:43;;;;;;;7.90;4.60;;;;;;;39.87;22.94;99930.84;108339;1251;60864;-69
2023/06/10 07:51:11;;;;;;;7.00;4.10;;;;;;;39.86;22.97;99932.85;108307;1251;63830;-68
2023/06/10 07:53:38;;;;;;;6.70;4.50;;;;;;;39.89;23.15;99931.46;108274;1256;61312;-67
2023/06/10 07:56:05;;;;;;;8.70;4.40;;;;;;;39.85;23.30;99933.92;108274;1256;64156;-68
2023/06/10 07:58:33;;;;;;;9.50;4.50;;;;;;;39.47;23.71;99930.71;108272;1251;60290;-68
2023/06/10 08:01:03;;;;;;;7.60;4.20;;;;;;;39.24;23.57;99929.46;108329;1251;60334;-69
2023/06/10 08:03:31;;;;;;;;;;;;;;;38.91;24.15;99924.70;108301;1251;64453;-69
2023/06/10 08:06:02;;;;;;;10.90;4.70;;;;;;;39.00;24.34;99921.11;108283;1251;61384;-69
2023/06/10 08:08:31;;;;;;;9.80;4.70;;;;;;;38.90;24.30;99919.44;108249;1253;62564;-69
2023/06/10 08:11:00;;;;;;;8.30;4.60;;;;;;;38.94;24.22;99917.83;108284;1251;61091;-68
2023/06/10 08:13:27;;;;;;;9.00;4.50;;;;;;;38.81;24.03;99910.25;108318;1251;60417;-67
2023/06/10 08:15:55;;;;;;;15.20;5.40;;;;;;;39.03;23.69;99907.95;108242;1251;64993;-67
2023/06/10 08:18:22;;;;;;;10.00;5.10;;;;;;;39.73;23.15;99911.37;108293;1251;61371;-68
2023/06/10 08:20:52;;;;;;;13.30;4.10;;;;;;;39.94;22.65;99908.44;108272;1251;63711;-69
2023/06/10 08:23:23;;;;;;;6.30;4.00;;;;;;;39.92;22.47;99908.50;108254;1251;60313;-69
2023/06/10 08:25:53;;;;;;;7.60;4.40;;;;;;;39.84;22.46;99912.27;108277;1251;60533;-67
2023/06/10 08:28:20;;;;;;;8.10;4.40;;;;;;;39.81;22.46;99913.55;108150;1253;64929;-68
2023/06/10 08:30:47;;;;;;;8.40;4.10;;;;;;;39.62;23.03;99912.23;108095;1253;60308;-69
2023/06/10 08:33:15;;;;;;;7.40;4.60;;;;;;;39.46;22.85;99913.58;108144;1253;63787;-67
2023/06/10 08:35:42;;;;;;;6.50;4.40;;;;;;;39.28;22.98;99915.52;108176;1253;60383;-69
2023/06/10 08:38:09;;;;;;;11.00;4.60;;;;;;;38.94;23.37;99910.67;108134;1253;60524;-68
2023/06/10 08:40:39;;;;;;;11.30;4.50;;;;;;;39.58;22.93;99909.86;108148;1252;63635;-68
2023/06/10 08:43:08;;;;;;;8.00;4.40;;;;;;;39.77;22.74;99911.87;108093;1253;62286;-69
2023/06/10 08:47:55;;;;;;;12.70;4.20;;;;;;;37.87;24.44;99921.35;104740;1292;601538;-69
2023/06/10 08:50:22;;;;;;;12.90;5.20;;;;;;;39.31;23.00;99920.27;107136;1266;59204;-68
2023/06/10 08:52:52;;;;;;;12.60;4.30;;;;;;;39.30;22.95;99920.19;107362;1263;59363;-69
2023/06/10 08:55:31;;;;;;;15.80;4.60;;;;;;;39.22;23.19;99919.34;107307;1264;63317;-69
2023/06/10 08:58:00;;;;;;;7.40;4.10;;;;;;;39.24;23.27;99919.33;107234;1266;61371;-69
2023/06/10 09:00:27;;;;;;;9.50;4.70;;;;;;;39.28;23.14;99913.05;107193;1266;167583;-69
2023/06/10 09:02:56;;;;;;;11.20;5.00;;;;;;;39.35;23.31;99917.15;107638;1260;58975;-67
2023/06/10 09:05:23;;;;;;;12.70;5.30;;;;;;;39.31;23.02;99918.84;107670;1260;59155;-68
2023/06/10 09:07:53;;;;;;;9.00;4.80;;;;;;;39.43;23.02;99916.14;107634;1257;62146;-69
2023/06/10 09:10:21;;;;;;;15.80;4.80;;;;;;;39.86;22.80;99919.50;107613;1257;60140;-69
2023/06/10 09:12:48;;;;;;;10.50;4.60;;;;;;;39.58;22.68;99922.63;107633;1260;63802;-69
2023/06/10 09:15:17;;;;;;;11.30;5.00;;;;;;;39.26;23.14;99924.53;107565;1257;59512;-69
2023/06/10 09:17:46;;;;;;;11.90;4.80;;;;;;;39.19;23.37;99932.29;107634;1257;59879;-69
2023/06/10 09:20:13;;;;;;;10.80;4.30;;;;;;;39.16;23.19;99932.17;107654;1257;62948;-69
2023/06/10 09:22:42;;;;;;;8.40;4.40;;;;;;;39.26;23.05;99928.06;107757;1257;61361;-69
2023/06/10 09:25:12;;;;;;;10.90;4.50;;;;;;;39.47;22.74;99926.65;107644;1257;62439;-69
2023/06/10 09:27:50;;;;;;;6.10;4.30;;;;;;;39.56;22.84;99921.17;107610;1258;59951;-69
2023/06/10 09:30:27;;;;;;;11.80;5.70;;;;;;;39.22;23.28;99922.70;107649;1260;59541;-69
2023/06/10 09:32:59;;;;;;;17.00;4.50;;;;;;;38.85;23.58;99923.15;107822;1258;64135;-69
2023/06/10 09:35:29;;;;;;;10.30;4.50;;;;;;;38.59;23.80;99926.33;107766;1260;61535;-70
2023/06/10 09:37:57;;;;;;;10.00;4.90;;;;;;;38.38;24.08;99924.61;107647;1259;62637;-68
2023/06/10 09:40:27;;;;;;;10.80;4.60;;;;;;;38.34;24.11;99925.23;107674;1260;59417;-68
2023/06/10 09:42:58;;;;;;;11.40;5.00;;;;;;;38.28;24.16;99921.50;107665;1258;59736;-69
2023/06/10 09:45:31;;;;;;;10.10;4.50;;;;;;;37.95;24.53;99920.77;107669;1257;64132;-68
2023/06/10 09:47:58;;;;;;;7.90;4.70;;;;;;;38.02;24.25;99916.92;107690;1258;60310;-69
2023/06/10 09:50:26;;;;;;;8.80;4.40;;;;;;;38.13;24.19;99916.98;107627;1257;63693;-68
2023/06/10 09:52:53;;;;;;;7.70;4.50;;;;;;;37.93;24.32;99914.59;107626;1260;59587;-69
2023/06/10 09:55:24;;;;;;;10.50;5.00;;;;;;;37.68;24.64;99911.65;107644;1262;60165;-68
2023/06/10 09:57:53;;;;;;;10.70;4.70;;;;;;;37.20;25.10;99912.93;107600;1258;64123;-68
2023/06/10 10:00:23;;;;;;;11.80;4.60;;;;;;;36.39;25.99;99914.42;107683;1260;61461;-68
2023/06/10 10:02:51;;;;;;;10.00;4.30;;;;;;;36.10;26.48;99914.96;107712;1262;64304;-68
2023/06/10 10:05:21;;;;;;;10.40;4.70;;;;;;;36.44;25.98;99911.64;107692;1259;59571;-70
2023/06/10 10:07:51;;;;;;;7.20;4.50;;;;;;;36.06;26.27;99906.99;107669;1258;59576;-66
2023/06/10 10:10:22;;;;;;;7.90;5.20;;;;;;;35.50;26.72;99908.52;107605;1258;64101;-68
2023/06/10 10:12:55;;;;;;;;;;;;;;;35.56;26.57;99910.55;107589;1262;61497;-68
2023/06/10 10:15:24;;;;;;;10.00;4.20;;;;;;;35.61;26.78;99912.08;107621;1260;63764;-68
2023/06/10 10:18:03;;;;;;;7.30;4.30;;;;;;;35.33;27.11;99905.58;107558;1260;59612;-67
2023/06/10 10:20:45;;;;;;;6.80;4.70;;;;;;;35.17;27.05;99901.96;107659;1260;59545;-68
2023/06/10 10:23:14;;;;;;;9.10;4.60;;;;;;;35.17;27.32;99902.69;107627;1260;62862;-67
2023/06/10 10:25:42;;;;;;;10.40;4.50;;;;;;;35.33;27.34;99901.02;107641;1260;60602;-67
2023/06/10 10:28:13;;;;;;;9.10;4.50;;;;;;;34.97;27.78;99903.31;107585;1260;62454;-69
2023/06/10 10:30:51;;;;;;;9.60;4.40;;;;;;;34.98;28.07;99900.63;107623;1260;59862;-68
2023/06/10 10:33:33;;;;;;;10.70;4.50;;;;;;;35.16;27.90;99900.43;107616;1258;59541;-69
2023/06/10 10:36:03;;;;;;;9.60;4.20;;;;;;;35.21;28.05;99895.91;107685;1260;64258;-69
2023/06/10 10:38:31;;;;;;;16.20;4.80;;;;;;;35.49;27.91;99898.52;107706;1259;60382;-68
2023/06/10 10:40:59;;;;;;;8.60;4.60;;;;;;;35.61;27.63;99894.42;107477;1265;63754;-68
2023/06/10 10:43:28;;;;;;;6.80;4.50;;;;;;;35.59;27.92;99892.54;107602;1262;59132;-69
2023/06/10 10:46:04;;;;;;;7.00;4.20;;;;;;;35.84;27.72;99892.85;107740;1258;59557;-69
2023/06/10 10:48:37;;;;;;;7.30;4.60;;;;;;;35.89;27.57;99889.33;107602;1261;64813;-69
2023/06/10 10:51:08;;;;;;;9.10;4.20;;;;;;;35.83;27.87;99887.54;107551;1260;69476;-68
2023/06/10 10:53:39;;;;;;;8.50;4.50;;;;;;;36.13;27.55;99884.41;107788;1262;63720;-69
2023/06/10 10:56:07;;;;;;;;;;;;;;;36.28;27.52;99886.45;107686;1260;59594;-69
2023/06/10 10:58:35;;;;;;;10.50;4.80;;;;;;;36.19;27.74;99886.02;107830;1256;59645;-66
2023/06/10 11:01:14;;;;;;;9.20;4.40;;;;;;;36.32;27.81;99884.37;107699;1257;64145;-68
2023/06/10 11:03:46;;;;;;;10.10;4.70;;;;;;;36.37;27.89;99881.66;107809;1256;60165;-68
2023/06/10 11:06:15;;;;;;;8.30;4.60;;;;;;;36.55;27.60;99875.95;107801;1262;63937;-68
2023/06/10 11:08:43;;;;;;;8.50;4.40;;;;;;;36.95;27.14;99878.63;107775;1257;59134;-68
2023/06/10 11:11:25;;;;;;;7.20;4.10;;;;;;;37.27;26.87;99873.11;107779;1257;59647;-70
2023/06/10 11:14:04;;;;;;;9.70;4.00;;;;;;;37.63;26.56;99869.90;107753;1261;64074;-68
2023/06/10 11:16:41;;;;;;;8.60;4.50;;;;;;;37.85;26.41;99869.30;107773;1258;61496;-68
2023/06/10 11:19:31;;;;;;;8.10;4.30;;;;;;;38.12;26.28;99861.61;107825;1257;64569;-68
2023/06/10 11:22:03;;;;;;;5.60;3.90;;;;;;;38.66;25.73;99855.20;107655;1264;59516;-69
2023/06/10 11:24:31;;;;;;;8.20;4.50;;;;;;;39.13;24.98;99851.94;107763;1256;59509;-69
2023/06/10 11:27:18;;;;;;;7.80;4.50;;;;;;;39.64;24.73;99851.61;107783;1260;64265;-69
2023/06/10 11:30:01;;;;;;;15.10;4.90;;;;;;;39.83;24.33;99850.23;107607;1260;61425;-69
2023/06/10 11:32:34;;;;;;;11.30;6.00;;;;;;;39.56;24.57;99840.34;107582;1260;63798;-69